createdAt,value
2019-03-08T00:01:15.631Z,3.20
2019-03-08T00:03:42.485Z,2.67
2019-03-08T00:06:09.008Z,2.97
2019-03-08T00:08:35.546Z,2.97
2019-03-08T00:11:02.396Z,2.70
2019-03-08T00:13:28.921Z,2.80
2019-03-08T00:15:55.763Z,2.73
2019-03-08T00:18:22.302Z,2.90
2019-03-08T00:20:48.829Z,2.93
2019-03-08T00:23:15.674Z,2.60
2019-03-08T00:25:43.564Z,2.90
2019-03-08T00:28:10.674Z,2.50
2019-03-08T00:30:37.430Z,2.73
2019-03-08T00:33:03.964Z,2.47
2019-03-08T00:35:30.508Z,2.63
2019-03-08T00:37:57.029Z,2.40
2019-03-08T00:40:23.873Z,2.40
2019-03-08T00:42:50.409Z,2.00
2019-03-08T00:45:17.247Z,2.27
2019-03-08T00:47:43.784Z,1.97
2019-03-08T00:50:10.422Z,2.00
2019-03-08T00:52:37.160Z,2.13
2019-03-08T00:55:03.697Z,1.90
2019-03-08T00:57:30.542Z,2.10
2019-03-08T00:59:57.071Z,1.90
2019-03-08T01:02:23.908Z,1.73
2019-03-08T01:04:51.084Z,2.00
2019-03-08T01:07:17.899Z,1.63
2019-03-08T01:09:44.438Z,1.80
2019-03-08T01:12:11.276Z,1.90
2019-03-08T01:14:38.141Z,1.73
2019-03-08T01:17:04.642Z,1.83
2019-03-08T01:19:31.119Z,1.73
2019-03-08T01:21:57.722Z,1.63
2019-03-08T01:24:24.274Z,1.40
2019-03-08T01:26:51.097Z,2.10
2019-03-08T01:29:17.938Z,1.80
2019-03-08T01:31:44.479Z,1.80
2019-03-08T01:34:11.102Z,1.70
2019-03-08T01:36:37.850Z,1.80
2019-03-08T01:39:04.383Z,1.30
2019-03-08T01:41:31.267Z,1.20
2019-03-08T01:43:58.072Z,1.50
2019-03-08T01:46:24.613Z,1.50
2019-03-08T01:48:51.442Z,1.57
2019-03-08T01:51:18.001Z,1.33
2019-03-08T01:53:44.823Z,1.30
2019-03-08T01:56:11.355Z,1.57
2019-03-08T01:58:38.197Z,1.17
2019-03-08T02:01:04.733Z,1.20
2019-03-08T02:03:31.266Z,1.07
2019-03-08T02:05:58.108Z,1.33
2019-03-08T02:08:24.643Z,1.13
2019-03-08T02:10:51.265Z,1.43
2019-03-08T02:13:18.019Z,1.30
2019-03-08T02:15:44.633Z,1.20
2019-03-08T02:18:11.392Z,1.17
2019-03-08T02:20:38.237Z,1.17
2019-03-08T02:23:04.774Z,1.20
2019-03-08T02:25:31.311Z,1.40
2019-03-08T02:27:58.171Z,1.10
2019-03-08T02:30:25.296Z,1.20
2019-03-08T02:32:51.831Z,1.10
2019-03-08T02:35:18.672Z,1.20
2019-03-08T02:37:45.214Z,1.00
2019-03-08T02:40:12.049Z,1.30
2019-03-08T02:42:38.888Z,1.17
2019-03-08T02:45:05.430Z,1.10
2019-03-08T02:47:32.270Z,0.80
2019-03-08T02:49:58.808Z,1.20
2019-03-08T02:52:25.342Z,1.10
2019-03-08T02:54:51.990Z,0.90
2019-03-08T02:57:18.707Z,0.93
2019-03-08T02:59:45.553Z,1.40
2019-03-08T03:02:12.084Z,0.90
2019-03-08T03:04:38.928Z,0.90
2019-03-08T03:07:05.770Z,0.90
2019-03-08T03:09:32.240Z,0.80
2019-03-08T03:11:58.841Z,0.90
2019-03-08T03:14:25.396Z,0.97
2019-03-08T03:16:52.212Z,0.80
2019-03-08T03:19:19.060Z,1.03
2019-03-08T03:21:46.204Z,0.77
2019-03-08T03:24:12.748Z,0.83
2019-03-08T03:26:39.278Z,0.70
2019-03-08T03:29:06.115Z,0.60
2019-03-08T03:31:32.741Z,0.83
2019-03-08T03:33:59.492Z,0.73
2019-03-08T03:36:26.027Z,0.70
2019-03-08T03:38:52.877Z,1.10
2019-03-08T03:41:19.457Z,0.70
2019-03-08T03:43:46.248Z,0.97
2019-03-08T03:46:12.786Z,0.80
2019-03-08T03:48:39.623Z,0.63
2019-03-08T03:51:06.154Z,0.70
2019-03-08T03:53:32.705Z,0.80
2019-03-08T03:55:59.839Z,0.70
2019-03-08T03:58:26.682Z,0.70
2019-03-08T04:00:53.221Z,0.80
2019-03-08T04:03:19.750Z,0.60
2019-03-08T04:05:46.220Z,0.80
2019-03-08T04:08:12.802Z,0.53
2019-03-08T04:10:39.356Z,0.73
2019-03-08T04:13:06.194Z,0.70
2019-03-08T04:15:32.731Z,0.80
2019-03-08T04:17:59.263Z,0.60
2019-03-08T04:20:26.106Z,0.50
2019-03-08T04:22:52.637Z,0.80
2019-03-08T04:25:19.480Z,0.40
2019-03-08T04:27:46.016Z,0.60
2019-03-08T04:30:12.932Z,0.63
2019-03-08T04:32:39.697Z,0.60
2019-03-08T04:35:06.237Z,0.57
2019-03-08T04:37:33.081Z,0.60
2019-03-08T04:39:59.607Z,0.60
2019-03-08T04:42:26.162Z,0.70
2019-03-08T04:44:52.992Z,0.70
2019-03-08T04:47:19.522Z,0.70
2019-03-08T04:49:46.360Z,0.60
2019-03-08T04:52:12.925Z,0.60
2019-03-08T04:54:39.428Z,0.60
2019-03-08T04:57:06.275Z,0.90
2019-03-08T04:59:32.811Z,0.60
2019-03-08T05:01:59.342Z,0.50
2019-03-08T05:04:25.877Z,0.53
2019-03-08T05:06:52.722Z,0.50
2019-03-08T05:09:19.565Z,0.50
2019-03-08T05:11:46.097Z,0.60
2019-03-08T05:14:12.944Z,0.60
2019-03-08T05:16:39.783Z,0.40
2019-03-08T05:19:06.312Z,0.53
2019-03-08T05:21:33.165Z,0.50
2019-03-08T05:23:59.687Z,1.00
2019-03-08T05:26:26.230Z,0.60
2019-03-08T05:28:52.761Z,0.40
2019-03-08T05:31:19.605Z,0.63
2019-03-08T05:33:46.445Z,0.70
2019-03-08T05:36:12.987Z,0.37
2019-03-08T05:38:39.507Z,0.50
2019-03-08T05:41:06.350Z,0.53
2019-03-08T05:43:33.195Z,0.50
2019-03-08T05:45:59.733Z,0.40
2019-03-08T05:48:26.510Z,0.40
2019-03-08T05:50:53.118Z,0.37
2019-03-08T05:53:19.635Z,0.60
2019-03-08T05:55:46.136Z,0.40
2019-03-08T05:58:12.694Z,0.30
2019-03-08T06:00:39.156Z,0.30
2019-03-08T06:03:05.772Z,0.40
2019-03-08T06:05:32.311Z,0.40
2019-03-08T06:07:59.154Z,0.30
2019-03-08T06:10:25.994Z,0.30
2019-03-08T06:12:52.528Z,0.30
2019-03-08T06:15:19.367Z,0.30
2019-03-08T06:17:45.916Z,0.40
2019-03-08T06:20:12.746Z,0.40
2019-03-08T06:22:39.589Z,0.40
2019-03-08T06:25:06.123Z,0.40
2019-03-08T06:27:32.962Z,0.40
2019-03-08T06:29:59.498Z,0.50
2019-03-08T06:32:26.031Z,0.43
2019-03-08T06:34:52.873Z,0.50
2019-03-08T06:37:19.406Z,0.30
2019-03-08T06:39:46.250Z,0.40
2019-03-08T06:42:12.784Z,0.33
2019-03-08T06:44:39.633Z,0.30
2019-03-08T06:47:06.471Z,0.40
2019-03-08T06:49:33.008Z,0.40
2019-03-08T06:52:00.990Z,0.40
2019-03-08T06:54:27.606Z,0.50
2019-03-08T06:56:54.448Z,0.30
2019-03-08T06:59:21.594Z,0.40
2019-03-08T07:01:48.438Z,0.30
2019-03-08T07:04:14.972Z,0.30
2019-03-08T07:06:41.813Z,0.40
2019-03-08T07:09:08.350Z,0.30
2019-03-08T07:11:35.190Z,0.40
2019-03-08T07:14:01.724Z,0.70
2019-03-08T07:16:28.571Z,0.30
2019-03-08T07:18:55.039Z,0.40
2019-03-08T07:21:21.637Z,0.20
2019-03-08T07:23:48.480Z,0.40
2019-03-08T07:26:15.013Z,0.30
2019-03-08T07:28:41.546Z,0.43
2019-03-08T07:31:08.391Z,0.40
2019-03-08T07:33:35.215Z,0.50
2019-03-08T07:36:02.073Z,0.43
2019-03-08T07:38:28.522Z,0.40
2019-03-08T07:40:55.141Z,0.30
2019-03-08T07:43:21.704Z,0.30
2019-03-08T07:45:48.517Z,0.30
2019-03-08T07:48:15.358Z,0.30
2019-03-08T07:50:42.506Z,0.30
2019-03-08T07:53:09.039Z,0.20
2019-03-08T07:55:35.881Z,0.40
2019-03-08T07:58:02.419Z,0.40
2019-03-08T08:00:29.263Z,0.40
2019-03-08T08:03:03.240Z,0.40
2019-03-08T08:05:24.235Z,0.60
2019-03-08T08:07:51.016Z,0.70
2019-03-08T08:10:18.164Z,1.40
2019-03-08T08:12:45.044Z,1.77
2019-03-08T08:15:11.847Z,1.20
2019-03-08T08:17:38.384Z,1.20
2019-03-08T08:20:04.842Z,1.50
2019-03-08T08:22:31.329Z,1.50
2019-03-08T08:24:59.005Z,1.70
2019-03-08T08:27:26.060Z,1.80
2019-03-08T08:29:52.588Z,1.53
2019-03-08T08:32:19.126Z,1.67
2019-03-08T08:34:45.965Z,1.40
2019-03-08T08:37:12.581Z,1.30
2019-03-08T08:39:40.955Z,1.60
2019-03-08T08:42:07.226Z,1.30
2019-03-08T08:44:33.946Z,1.30
2019-03-08T08:47:00.483Z,1.40
2019-03-08T08:49:27.321Z,1.20
2019-03-08T08:51:53.834Z,1.00
2019-03-08T08:54:20.698Z,1.00
2019-03-08T08:56:47.238Z,1.30
2019-03-08T08:59:14.381Z,1.30
2019-03-08T09:01:40.913Z,1.20
2019-03-08T09:04:07.452Z,1.40
2019-03-08T09:06:34.291Z,1.10
2019-03-08T09:09:01.165Z,1.40
2019-03-08T09:11:27.973Z,1.03
2019-03-08T09:13:54.507Z,1.13
2019-03-08T09:16:21.353Z,1.07
2019-03-08T09:18:47.867Z,1.13
2019-03-08T09:21:14.418Z,0.93
2019-03-08T09:23:40.957Z,0.90
2019-03-08T09:26:07.488Z,1.10
2019-03-08T09:28:34.022Z,1.10
2019-03-08T09:31:00.568Z,1.20
2019-03-08T09:33:27.711Z,1.00
2019-03-08T09:35:54.241Z,1.10
2019-03-08T09:38:21.088Z,0.90
2019-03-08T09:40:47.614Z,1.10
2019-03-08T09:43:14.149Z,0.93
2019-03-08T09:45:40.992Z,0.70
2019-03-08T09:48:07.842Z,0.90
2019-03-08T09:50:34.677Z,1.00
2019-03-08T09:53:01.209Z,0.90
2019-03-08T09:55:27.721Z,0.80
2019-03-08T09:57:54.280Z,0.60
2019-03-08T10:00:21.122Z,0.70
2019-03-08T10:02:47.963Z,1.00
2019-03-08T10:05:14.498Z,0.80
2019-03-08T10:07:41.035Z,0.90
2019-03-08T10:10:07.568Z,0.80
2019-03-08T10:12:34.108Z,0.93
2019-03-08T10:15:01.559Z,0.60
2019-03-08T10:17:28.396Z,0.80
2019-03-08T10:19:54.933Z,0.70
2019-03-08T10:22:21.775Z,0.70
2019-03-08T10:24:48.290Z,0.80
2019-03-08T10:27:15.154Z,0.77
2019-03-08T10:29:41.687Z,0.80
2019-03-08T10:32:08.167Z,1.40
2019-03-08T10:34:34.760Z,1.23
2019-03-08T10:37:01.289Z,1.30
2019-03-08T10:39:28.138Z,1.40
2019-03-08T10:41:54.942Z,1.30
2019-03-08T10:44:21.815Z,1.70
2019-03-08T10:46:48.657Z,1.57
2019-03-08T10:49:15.195Z,1.30
2019-03-08T10:51:42.037Z,1.27
2019-03-08T10:54:08.567Z,1.50
2019-03-08T10:56:35.415Z,1.30
2019-03-08T10:59:01.942Z,1.27
2019-03-08T11:01:28.784Z,1.37
2019-03-08T11:03:55.629Z,1.60
2019-03-08T11:06:22.119Z,1.63
2019-03-08T11:08:48.693Z,1.60
2019-03-08T11:11:15.538Z,1.47
2019-03-08T11:13:44.152Z,1.50
2019-03-08T11:16:11.455Z,1.40
2019-03-08T11:18:38.833Z,1.07
2019-03-08T11:21:05.672Z,1.10
2019-03-08T11:23:32.527Z,1.50
2019-03-08T11:25:59.350Z,1.30
2019-03-08T11:28:26.192Z,1.27
2019-03-08T11:30:54.131Z,1.00
2019-03-08T11:33:21.130Z,0.80
2019-03-08T11:35:47.945Z,1.13
2019-03-08T11:38:14.790Z,0.90
2019-03-08T11:40:41.613Z,1.10
2019-03-08T11:43:08.134Z,0.83
2019-03-08T11:45:34.697Z,0.70
2019-03-08T11:48:01.542Z,1.00
2019-03-08T11:50:28.722Z,1.20
2019-03-08T11:52:55.835Z,1.03
2019-03-08T11:55:22.315Z,1.10
2019-03-08T11:57:49.231Z,1.00
2019-03-08T12:00:16.060Z,1.20
2019-03-08T12:02:42.589Z,0.87
2019-03-08T12:05:09.473Z,1.23
2019-03-08T12:07:36.277Z,1.20
2019-03-08T12:10:02.752Z,1.10
2019-03-08T12:12:29.224Z,0.90
2019-03-08T12:14:55.877Z,1.00
2019-03-08T12:17:22.391Z,0.87
2019-03-08T12:19:48.943Z,0.73
2019-03-08T12:22:15.588Z,0.83
2019-03-08T12:24:42.302Z,1.10
2019-03-08T12:27:09.166Z,1.00
2019-03-08T12:29:36.017Z,1.10
2019-03-08T12:32:02.508Z,1.00
2019-03-08T12:34:29.018Z,1.00
2019-03-08T12:36:55.624Z,0.70
2019-03-08T12:39:22.157Z,0.73
2019-03-08T12:41:48.993Z,0.90
2019-03-08T12:44:15.839Z,0.77
2019-03-08T12:46:42.360Z,0.87
2019-03-08T12:49:09.276Z,0.80
2019-03-08T12:51:36.052Z,0.80
2019-03-08T12:54:02.884Z,0.80
2019-03-08T12:56:29.418Z,0.77
2019-03-08T12:58:55.956Z,0.67
2019-03-08T13:01:22.486Z,0.80
2019-03-08T13:03:49.331Z,0.90
2019-03-08T13:06:16.169Z,0.73
2019-03-08T13:08:42.707Z,0.50
2019-03-08T13:11:09.330Z,0.70
2019-03-08T13:13:36.083Z,0.70
2019-03-08T13:16:02.615Z,0.90
2019-03-08T13:18:29.458Z,0.60
2019-03-08T13:20:55.993Z,0.60
2019-03-08T13:23:22.833Z,0.77
2019-03-08T13:25:49.374Z,0.63
2019-03-08T13:28:15.902Z,0.80
2019-03-08T13:30:42.744Z,0.60
2019-03-08T13:33:09.318Z,0.70
2019-03-08T13:35:36.440Z,0.67
2019-03-08T13:38:02.969Z,0.67
2019-03-08T13:40:29.501Z,0.60
2019-03-08T13:42:56.336Z,0.70
2019-03-08T13:45:22.881Z,0.70
2019-03-08T13:47:49.408Z,0.70
2019-03-08T13:50:15.942Z,0.50
2019-03-08T13:52:42.782Z,1.10
2019-03-08T13:55:09.852Z,0.67
2019-03-08T13:57:36.466Z,0.60
2019-03-08T14:00:03.004Z,0.50
2019-03-08T14:02:29.540Z,0.50
2019-03-08T14:04:56.070Z,0.70
2019-03-08T14:07:22.918Z,0.50
2019-03-08T14:09:49.754Z,0.50
2019-03-08T14:12:16.391Z,0.67
2019-03-08T14:14:43.154Z,0.53
2019-03-08T14:17:10.308Z,0.60
2019-03-08T14:19:39.384Z,0.83
2019-03-08T14:22:06.116Z,0.90
2019-03-08T14:24:32.995Z,0.60
2019-03-08T14:27:00.411Z,0.70
2019-03-08T14:29:26.945Z,0.40
2019-03-08T14:31:53.783Z,0.53
2019-03-08T14:34:20.324Z,0.50
2019-03-08T14:36:46.856Z,0.70
2019-03-08T14:39:13.697Z,0.70
2019-03-08T14:41:40.542Z,0.70
2019-03-08T14:44:07.377Z,0.50
2019-03-08T14:46:33.913Z,0.60
2019-03-08T14:49:00.758Z,0.40
2019-03-08T14:51:27.380Z,0.80
2019-03-08T14:53:54.134Z,0.60
2019-03-08T14:56:20.749Z,0.57
2019-03-08T14:58:47.506Z,1.00
2019-03-08T15:01:14.354Z,1.00
2019-03-08T15:03:43.773Z,0.90
2019-03-08T15:06:09.267Z,1.10
2019-03-08T15:08:36.100Z,1.20
2019-03-08T15:11:02.634Z,1.07
2019-03-08T15:13:29.172Z,1.00
2019-03-08T15:15:57.837Z,0.90
2019-03-08T15:18:25.975Z,1.30
2019-03-08T15:20:54.868Z,1.47
2019-03-08T15:23:20.533Z,1.50
2019-03-08T15:25:48.950Z,0.90
2019-03-08T15:28:15.450Z,1.10
2019-03-08T15:30:43.207Z,1.20
2019-03-08T15:33:09.843Z,1.10
2019-03-08T15:35:36.567Z,1.00
2019-03-08T15:38:03.125Z,1.10
2019-03-08T15:40:33.209Z,1.20
2019-03-08T15:42:58.028Z,1.13
2019-03-08T15:45:24.873Z,1.27
2019-03-08T15:47:51.453Z,1.20
2019-03-08T15:50:18.251Z,1.43
2019-03-08T15:52:44.781Z,1.30
2019-03-08T15:55:11.318Z,1.20
2019-03-08T15:57:38.163Z,1.50
2019-03-08T16:00:04.694Z,1.30
2019-03-08T16:02:31.536Z,1.33
2019-03-08T16:04:58.071Z,1.80
2019-03-08T16:07:27.056Z,1.40
2019-03-08T16:09:52.987Z,1.60
2019-03-08T16:12:19.616Z,1.53
2019-03-08T16:14:46.370Z,1.30
2019-03-08T16:17:13.504Z,1.20
2019-03-08T16:19:40.354Z,1.40
2019-03-08T16:22:08.608Z,1.50
2019-03-08T16:24:35.264Z,1.37
2019-03-08T16:27:02.450Z,1.20
2019-03-08T16:29:30.177Z,1.43
2019-03-08T16:31:57.320Z,2.07
2019-03-08T16:34:24.165Z,1.93
2019-03-08T16:36:50.709Z,2.03
2019-03-08T16:39:17.237Z,2.00
2019-03-08T16:41:44.071Z,1.80
2019-03-08T16:44:10.921Z,1.93
2019-03-08T16:46:38.063Z,1.53
2019-03-08T16:49:04.606Z,1.73
2019-03-08T16:51:34.503Z,1.30
2019-03-08T16:53:59.558Z,1.30
2019-03-08T16:56:26.351Z,1.10
2019-03-08T16:58:53.503Z,1.20
2019-03-08T17:01:20.348Z,1.20
2019-03-08T17:03:46.878Z,1.13
2019-03-08T17:06:13.719Z,1.30
2019-03-08T17:08:40.253Z,1.50
2019-03-08T17:11:07.094Z,1.60
2019-03-08T17:13:33.630Z,1.80
2019-03-08T17:16:00.469Z,1.83
2019-03-08T17:18:27.005Z,1.97
2019-03-08T17:20:53.844Z,1.80
2019-03-08T17:23:20.691Z,1.70
2019-03-08T17:25:47.226Z,1.80
2019-03-08T17:28:14.062Z,2.13
2019-03-08T17:30:40.909Z,1.83
2019-03-08T17:33:07.445Z,1.70
2019-03-08T17:35:35.248Z,1.90
2019-03-08T17:38:02.351Z,1.73
2019-03-08T17:40:28.888Z,1.80
2019-03-08T17:42:55.411Z,1.83
2019-03-08T17:45:21.958Z,1.50
2019-03-08T17:47:49.425Z,1.40
2019-03-08T17:50:16.106Z,1.40
2019-03-08T17:52:42.794Z,1.83
2019-03-08T17:55:09.628Z,1.60
2019-03-08T17:57:36.162Z,1.43
2019-03-08T18:00:03.005Z,1.73
2019-03-08T18:02:29.849Z,1.97
2019-03-08T18:04:56.692Z,1.80
2019-03-08T18:07:23.579Z,1.73
2019-03-08T18:09:50.390Z,1.60
2019-03-08T18:12:17.830Z,1.77
2019-03-08T18:14:44.486Z,1.40
2019-03-08T18:17:13.155Z,1.30
2019-03-08T18:19:39.833Z,1.67
2019-03-08T18:22:06.619Z,1.50
2019-03-08T18:24:33.256Z,1.80
2019-03-08T18:26:59.801Z,1.70
2019-03-08T18:29:26.642Z,1.97
2019-03-08T18:31:53.974Z,1.60
2019-03-08T18:34:21.133Z,1.73
2019-03-08T18:36:48.138Z,1.67
2019-03-08T18:39:14.859Z,2.00
2019-03-08T18:41:42.927Z,1.90
2019-03-08T18:44:09.682Z,2.00
2019-03-08T18:46:36.376Z,1.73
2019-03-08T18:49:03.231Z,2.10
2019-03-08T18:51:29.760Z,2.17
2019-03-08T18:53:56.287Z,1.90
2019-03-08T18:56:23.413Z,2.10
2019-03-08T18:58:50.588Z,2.00
2019-03-08T19:01:17.424Z,2.40
2019-03-08T19:03:44.268Z,2.40
2019-03-08T19:06:11.109Z,2.17
2019-03-08T19:08:37.642Z,2.13
2019-03-08T19:11:04.505Z,2.50
2019-03-08T19:13:31.020Z,2.30
2019-03-08T19:15:57.559Z,2.20
2019-03-08T19:18:24.400Z,2.50
2019-03-08T19:20:51.239Z,2.57
2019-03-08T19:23:17.774Z,2.40
2019-03-08T19:25:44.613Z,3.00
2019-03-08T19:28:11.150Z,2.50
2019-03-08T19:30:37.992Z,2.40
2019-03-08T19:33:04.836Z,2.73
2019-03-08T19:35:31.674Z,2.77
2019-03-08T19:37:58.517Z,2.57
2019-03-08T19:40:25.096Z,2.70
2019-03-08T19:42:51.896Z,3.10
2019-03-08T19:45:18.735Z,3.37
2019-03-08T19:47:45.883Z,3.23
2019-03-08T19:50:12.722Z,2.90
2019-03-08T19:52:39.262Z,3.17
2019-03-08T19:55:05.789Z,2.90
2019-03-08T19:57:32.636Z,3.30
2019-03-08T19:59:59.171Z,3.13
2019-03-08T20:02:26.008Z,3.23
2019-03-08T20:04:52.544Z,3.70
2019-03-08T20:07:19.081Z,3.70
2019-03-08T20:09:45.925Z,3.87
2019-03-08T20:12:12.454Z,3.47
2019-03-08T20:14:39.607Z,3.27
2019-03-08T20:17:06.444Z,3.83
2019-03-08T20:19:32.899Z,3.57
2019-03-08T20:21:59.821Z,3.30
2019-03-08T20:24:26.360Z,3.40
2019-03-08T20:26:53.198Z,4.00
2019-03-08T20:29:20.390Z,4.13
2019-03-08T20:31:47.190Z,3.87
2019-03-08T20:34:13.722Z,3.30
2019-03-08T20:36:40.819Z,4.07
2019-03-08T20:39:07.731Z,3.87
2019-03-08T20:41:34.299Z,4.20
2019-03-08T20:44:01.090Z,3.90
2019-03-08T20:46:27.622Z,3.83
2019-03-08T20:48:54.516Z,3.97
2019-03-08T20:51:21.057Z,4.20
2019-03-08T20:53:47.843Z,3.60
2019-03-08T20:56:14.683Z,4.03
2019-03-08T20:58:41.215Z,4.00
2019-03-08T21:01:07.754Z,3.97
2019-03-08T21:03:34.594Z,4.13
2019-03-08T21:06:01.444Z,4.20
2019-03-08T21:08:27.979Z,4.43
2019-03-08T21:10:54.509Z,4.27
2019-03-08T21:13:21.349Z,4.00
2019-03-08T21:15:48.205Z,4.43
2019-03-08T21:18:14.749Z,4.03
2019-03-08T21:20:41.563Z,4.20
2019-03-08T21:23:08.413Z,4.53
2019-03-08T21:25:35.025Z,3.87
2019-03-08T21:28:02.113Z,4.20
2019-03-08T21:30:28.934Z,4.10
2019-03-08T21:32:55.462Z,4.40
2019-03-08T21:35:21.999Z,4.10
2019-03-08T21:37:48.628Z,4.43
2019-03-08T21:40:17.623Z,4.53
2019-03-08T21:42:43.754Z,4.13
2019-03-08T21:45:10.607Z,4.37
2019-03-08T21:47:37.438Z,4.53
2019-03-08T21:50:03.970Z,4.13
2019-03-08T21:52:30.811Z,4.17
2019-03-08T21:54:57.350Z,4.40
2019-03-08T21:57:23.885Z,3.93
2019-03-08T21:59:50.506Z,4.47
2019-03-08T22:02:17.270Z,4.07
2019-03-08T22:04:44.096Z,4.53
2019-03-08T22:07:10.940Z,5.03
2019-03-08T22:09:37.478Z,4.83
2019-03-08T22:12:04.015Z,5.27
2019-03-08T22:14:30.543Z,4.30
2019-03-08T22:16:57.382Z,4.60
2019-03-08T22:19:23.921Z,4.60
2019-03-08T22:21:50.768Z,4.47
2019-03-08T22:24:17.296Z,4.47
2019-03-08T22:26:43.828Z,4.33
2019-03-08T22:29:10.675Z,4.70
2019-03-08T22:31:37.227Z,4.77
2019-03-08T22:34:03.971Z,4.67
2019-03-08T22:36:30.596Z,4.90
2019-03-08T22:38:57.737Z,4.37
2019-03-08T22:41:24.573Z,4.23
2019-03-08T22:43:51.121Z,4.67
2019-03-08T22:46:17.965Z,4.10
2019-03-08T22:48:44.843Z,4.50
2019-03-08T22:51:12.039Z,4.20
2019-03-08T22:53:38.974Z,4.53
2019-03-08T22:56:05.956Z,4.27
2019-03-08T22:58:32.778Z,4.43
2019-03-08T23:00:59.306Z,3.90
2019-03-08T23:03:26.149Z,4.07
2019-03-08T23:05:52.990Z,3.97
2019-03-08T23:08:19.525Z,3.43
2019-03-08T23:10:46.675Z,3.83
2019-03-08T23:13:13.210Z,3.43
2019-03-08T23:15:39.740Z,3.83
2019-03-08T23:18:06.273Z,3.50
2019-03-08T23:20:32.811Z,3.97
2019-03-08T23:22:59.356Z,3.70
2019-03-08T23:25:26.191Z,3.47
2019-03-08T23:27:53.034Z,3.50
2019-03-08T23:30:19.870Z,3.70
2019-03-08T23:32:46.419Z,3.43
2019-03-08T23:35:13.247Z,3.30
2019-03-08T23:37:39.780Z,3.90
2019-03-08T23:40:06.630Z,3.57
2019-03-08T23:42:33.465Z,3.23
2019-03-08T23:44:59.997Z,3.37
2019-03-08T23:47:26.890Z,3.30
2019-03-08T23:49:53.686Z,3.17
2019-03-08T23:52:20.157Z,3.10
2019-03-08T23:54:46.759Z,3.00
2019-03-08T23:57:13.593Z,2.97
2019-03-08T23:59:40.433Z,3.07
